sensor_id;sensor_type;location;lat;lon;timestamp;P1;durP1;ratioP1;P2;durP2;ratioP2
40729;SDS011;26418;50.070;8.436;2022-09-16T00:00:11;2.60;;;1.13;;
40729;SDS011;26418;50.070;8.436;2022-09-16T00:02:37;3.55;;;1.40;;
40729;SDS011;26418;50.070;8.436;2022-09-16T00:05:03;2.67;;;1.50;;
40729;SDS011;26418;50.070;8.436;2022-09-16T00:07:29;2.33;;;1.13;;
40729;SDS011;26418;50.070;8.436;2022-09-16T00:09:55;7.07;;;1.50;;
40729;SDS011;26418;50.070;8.436;2022-09-16T00:12:20;3.17;;;1.20;;
40729;SDS011;26418;50.070;8.436;2022-09-16T00:14:46;4.05;;;1.38;;
40729;SDS011;26418;50.070;8.436;2022-09-16T00:17:11;3.30;;;1.20;;
40729;SDS011;26418;50.070;8.436;2022-09-16T00:19:37;3.67;;;1.20;;
40729;SDS011;26418;50.070;8.436;2022-09-16T00:22:03;4.43;;;1.30;;
40729;SDS011;26418;50.070;8.436;2022-09-16T00:24:29;2.58;;;0.85;;
40729;SDS011;26418;50.070;8.436;2022-09-16T00:26:54;5.63;;;1.25;;
40729;SDS011;26418;50.070;8.436;2022-09-16T00:29:20;5.25;;;1.05;;
40729;SDS011;26418;50.070;8.436;2022-09-16T00:31:45;3.53;;;0.90;;
40729;SDS011;26418;50.070;8.436;2022-09-16T00:34:10;4.28;;;1.27;;
40729;SDS011;26418;50.070;8.436;2022-09-16T00:36:36;4.88;;;1.23;;
40729;SDS011;26418;50.070;8.436;2022-09-16T00:39:01;1.88;;;1.15;;
40729;SDS011;26418;50.070;8.436;2022-09-16T00:41:28;5.88;;;1.20;;
40729;SDS011;26418;50.070;8.436;2022-09-16T00:44:02;3.33;;;1.02;;
40729;SDS011;26418;50.070;8.436;2022-09-16T00:46:40;2.03;;;0.70;;
40729;SDS011;26418;50.070;8.436;2022-09-16T00:51:49;2.25;;;0.75;;
40729;SDS011;26418;50.070;8.436;2022-09-16T00:54:18;4.25;;;0.93;;
40729;SDS011;26418;50.070;8.436;2022-09-16T00:56:45;5.13;;;0.65;;
40729;SDS011;26418;50.070;8.436;2022-09-16T00:59:14;7.53;;;0.95;;
40729;SDS011;26418;50.070;8.436;2022-09-16T01:01:52;3.15;;;0.88;;
40729;SDS011;26418;50.070;8.436;2022-09-16T01:06:48;3.53;;;1.05;;
40729;SDS011;26418;50.070;8.436;2022-09-16T01:09:15;6.32;;;1.08;;
40729;SDS011;26418;50.070;8.436;2022-09-16T01:11:43;1.60;;;0.95;;
40729;SDS011;26418;50.070;8.436;2022-09-16T01:14:09;3.78;;;1.50;;
40729;SDS011;26418;50.070;8.436;2022-09-16T01:16:55;4.30;;;1.23;;
40729;SDS011;26418;50.070;8.436;2022-09-16T01:30:48;3.40;;;1.02;;
40729;SDS011;26418;50.070;8.436;2022-09-16T01:36:13;5.13;;;1.17;;
40729;SDS011;26418;50.070;8.436;2022-09-16T01:41:44;3.47;;;1.23;;
40729;SDS011;26418;50.070;8.436;2022-09-16T01:47:11;1.83;;;0.73;;
40729;SDS011;26418;50.070;8.436;2022-09-16T01:49:50;0.88;;;0.50;;
40729;SDS011;26418;50.070;8.436;2022-09-16T01:55:25;4.07;;;1.10;;
40729;SDS011;26418;50.070;8.436;2022-09-16T02:00:39;5.32;;;1.25;;
40729;SDS011;26418;50.070;8.436;2022-09-16T02:03:09;1.35;;;0.57;;
40729;SDS011;26418;50.070;8.436;2022-09-16T02:05:55;1.90;;;0.90;;
40729;SDS011;26418;50.070;8.436;2022-09-16T02:11:14;2.45;;;0.77;;
40729;SDS011;26418;50.070;8.436;2022-09-16T02:13:44;5.80;;;0.82;;
40729;SDS011;26418;50.070;8.436;2022-09-16T02:16:15;4.25;;;1.00;;
40729;SDS011;26418;50.070;8.436;2022-09-16T02:18:51;2.00;;;0.75;;
40729;SDS011;26418;50.070;8.436;2022-09-16T02:21:19;2.85;;;0.80;;
40729;SDS011;26418;50.070;8.436;2022-09-16T02:23:50;6.68;;;1.40;;
40729;SDS011;26418;50.070;8.436;2022-09-16T02:26:20;2.35;;;0.70;;
40729;SDS011;26418;50.070;8.436;2022-09-16T02:28:49;2.80;;;0.88;;
40729;SDS011;26418;50.070;8.436;2022-09-16T02:31:16;5.65;;;0.77;;
40729;SDS011;26418;50.070;8.436;2022-09-16T02:33:49;3.42;;;0.90;;
40729;SDS011;26418;50.070;8.436;2022-09-16T02:36:21;1.52;;;0.80;;
40729;SDS011;26418;50.070;8.436;2022-09-16T02:38:57;1.65;;;0.75;;
40729;SDS011;26418;50.070;8.436;2022-09-16T02:41:31;4.07;;;1.25;;
40729;SDS011;26418;50.070;8.436;2022-09-16T02:43:56;2.42;;;0.70;;
40729;SDS011;26418;50.070;8.436;2022-09-16T02:57:00;2.33;;;0.77;;
40729;SDS011;26418;50.070;8.436;2022-09-16T02:59:26;4.60;;;1.05;;
40729;SDS011;26418;50.070;8.436;2022-09-16T03:04:20;3.00;;;1.45;;
40729;SDS011;26418;50.070;8.436;2022-09-16T03:06:46;2.70;;;0.80;;
40729;SDS011;26418;50.070;8.436;2022-09-16T03:09:13;6.82;;;1.02;;
40729;SDS011;26418;50.070;8.436;2022-09-16T03:14:33;7.97;;;1.13;;
40729;SDS011;26418;50.070;8.436;2022-09-16T03:27:50;4.50;;;1.20;;
40729;SDS011;26418;50.070;8.436;2022-09-16T03:30:21;5.07;;;0.95;;
40729;SDS011;26418;50.070;8.436;2022-09-16T03:32:54;5.10;;;0.88;;
40729;SDS011;26418;50.070;8.436;2022-09-16T03:35:29;11.60;;;1.08;;
40729;SDS011;26418;50.070;8.436;2022-09-16T03:37:58;2.65;;;0.93;;
40729;SDS011;26418;50.070;8.436;2022-09-16T03:40:25;4.30;;;1.10;;
40729;SDS011;26418;50.070;8.436;2022-09-16T03:42:53;5.95;;;1.35;;
40729;SDS011;26418;50.070;8.436;2022-09-16T03:45:21;2.45;;;1.00;;
40729;SDS011;26418;50.070;8.436;2022-09-16T03:47:48;5.40;;;0.93;;
40729;SDS011;26418;50.070;8.436;2022-09-16T03:50:15;3.38;;;1.00;;
40729;SDS011;26418;50.070;8.436;2022-09-16T03:52:41;3.95;;;0.93;;
40729;SDS011;26418;50.070;8.436;2022-09-16T03:55:07;3.35;;;1.05;;
40729;SDS011;26418;50.070;8.436;2022-09-16T03:57:34;1.92;;;1.10;;
40729;SDS011;26418;50.070;8.436;2022-09-16T04:00:00;2.95;;;0.88;;
40729;SDS011;26418;50.070;8.436;2022-09-16T04:02:26;2.95;;;1.60;;
40729;SDS011;26418;50.070;8.436;2022-09-16T04:04:51;2.47;;;1.27;;
40729;SDS011;26418;50.070;8.436;2022-09-16T04:07:17;3.60;;;1.40;;
40729;SDS011;26418;50.070;8.436;2022-09-16T04:09:42;3.05;;;1.38;;
40729;SDS011;26418;50.070;8.436;2022-09-16T04:12:08;4.35;;;1.30;;
40729;SDS011;26418;50.070;8.436;2022-09-16T04:14:34;5.38;;;1.20;;
40729;SDS011;26418;50.070;8.436;2022-09-16T04:17:00;4.63;;;1.13;;
40729;SDS011;26418;50.070;8.436;2022-09-16T04:19:25;2.83;;;0.90;;
40729;SDS011;26418;50.070;8.436;2022-09-16T04:21:51;3.38;;;1.00;;
40729;SDS011;26418;50.070;8.436;2022-09-16T04:24:16;3.55;;;1.00;;
40729;SDS011;26418;50.070;8.436;2022-09-16T04:26:42;6.88;;;1.17;;
40729;SDS011;26418;50.070;8.436;2022-09-16T04:29:08;4.20;;;1.40;;
40729;SDS011;26418;50.070;8.436;2022-09-16T04:31:34;1.77;;;0.80;;
40729;SDS011;26418;50.070;8.436;2022-09-16T04:34:00;1.90;;;0.88;;
40729;SDS011;26418;50.070;8.436;2022-09-16T04:36:29;1.85;;;0.98;;
40729;SDS011;26418;50.070;8.436;2022-09-16T04:38:55;2.30;;;0.88;;
40729;SDS011;26418;50.070;8.436;2022-09-16T04:41:24;2.25;;;1.05;;
40729;SDS011;26418;50.070;8.436;2022-09-16T04:43:51;3.05;;;0.75;;
40729;SDS011;26418;50.070;8.436;2022-09-16T04:46:20;2.20;;;1.23;;
40729;SDS011;26418;50.070;8.436;2022-09-16T04:48:46;1.83;;;0.77;;
40729;SDS011;26418;50.070;8.436;2022-09-16T04:51:13;4.90;;;1.00;;
40729;SDS011;26418;50.070;8.436;2022-09-16T04:53:38;3.00;;;1.00;;
40729;SDS011;26418;50.070;8.436;2022-09-16T04:56:12;6.25;;;1.10;;
40729;SDS011;26418;50.070;8.436;2022-09-16T04:58:49;6.95;;;1.60;;
40729;SDS011;26418;50.070;8.436;2022-09-16T05:01:17;8.93;;;2.03;;
40729;SDS011;26418;50.070;8.436;2022-09-16T05:03:45;4.45;;;1.42;;
40729;SDS011;26418;50.070;8.436;2022-09-16T05:06:20;6.03;;;1.75;;
40729;SDS011;26418;50.070;8.436;2022-09-16T05:08:50;7.75;;;1.60;;
40729;SDS011;26418;50.070;8.436;2022-09-16T05:11:22;7.70;;;1.50;;
40729;SDS011;26418;50.070;8.436;2022-09-16T05:13:51;2.90;;;1.10;;
40729;SDS011;26418;50.070;8.436;2022-09-16T05:16:18;7.25;;;1.63;;
40729;SDS011;26418;50.070;8.436;2022-09-16T05:18:46;4.45;;;1.60;;
40729;SDS011;26418;50.070;8.436;2022-09-16T05:21:17;4.72;;;1.83;;
40729;SDS011;26418;50.070;8.436;2022-09-16T05:23:44;8.35;;;5.80;;
40729;SDS011;26418;50.070;8.436;2022-09-16T05:26:11;9.40;;;5.70;;
40729;SDS011;26418;50.070;8.436;2022-09-16T05:28:38;9.27;;;6.60;;
40729;SDS011;26418;50.070;8.436;2022-09-16T05:31:11;8.00;;;4.20;;
40729;SDS011;26418;50.070;8.436;2022-09-16T05:33:39;7.32;;;3.75;;
40729;SDS011;26418;50.070;8.436;2022-09-16T05:36:06;9.52;;;4.15;;
40729;SDS011;26418;50.070;8.436;2022-09-16T05:38:33;7.43;;;4.40;;
40729;SDS011;26418;50.070;8.436;2022-09-16T05:40:59;9.48;;;3.80;;
40729;SDS011;26418;50.070;8.436;2022-09-16T05:43:25;7.40;;;3.33;;
40729;SDS011;26418;50.070;8.436;2022-09-16T05:45:51;2.63;;;1.70;;
40729;SDS011;26418;50.070;8.436;2022-09-16T05:48:17;7.63;;;2.55;;
40729;SDS011;26418;50.070;8.436;2022-09-16T05:50:49;4.88;;;1.98;;
40729;SDS011;26418;50.070;8.436;2022-09-16T05:53:18;7.53;;;2.60;;
40729;SDS011;26418;50.070;8.436;2022-09-16T05:58:27;10.60;;;2.72;;
40729;SDS011;26418;50.070;8.436;2022-09-16T06:01:00;4.38;;;2.70;;
40729;SDS011;26418;50.070;8.436;2022-09-16T06:03:28;9.80;;;3.30;;
40729;SDS011;26418;50.070;8.436;2022-09-16T06:06:04;8.07;;;2.60;;
40729;SDS011;26418;50.070;8.436;2022-09-16T06:08:32;9.32;;;2.30;;
40729;SDS011;26418;50.070;8.436;2022-09-16T06:10:59;10.27;;;2.17;;
40729;SDS011;26418;50.070;8.436;2022-09-16T06:13:25;8.73;;;2.67;;
40729;SDS011;26418;50.070;8.436;2022-09-16T06:15:51;5.90;;;2.13;;
40729;SDS011;26418;50.070;8.436;2022-09-16T06:18:20;4.20;;;1.65;;
40729;SDS011;26418;50.070;8.436;2022-09-16T06:20:47;8.65;;;2.47;;
40729;SDS011;26418;50.070;8.436;2022-09-16T06:23:12;5.10;;;1.85;;
40729;SDS011;26418;50.070;8.436;2022-09-16T06:25:38;5.93;;;1.80;;
40729;SDS011;26418;50.070;8.436;2022-09-16T06:28:03;7.57;;;2.05;;
40729;SDS011;26418;50.070;8.436;2022-09-16T06:30:29;7.10;;;2.33;;
40729;SDS011;26418;50.070;8.436;2022-09-16T06:32:55;7.38;;;1.83;;
40729;SDS011;26418;50.070;8.436;2022-09-16T06:35:20;4.35;;;1.90;;
40729;SDS011;26418;50.070;8.436;2022-09-16T06:37:46;8.95;;;2.05;;
40729;SDS011;26418;50.070;8.436;2022-09-16T06:40:11;7.15;;;1.73;;
40729;SDS011;26418;50.070;8.436;2022-09-16T06:42:36;4.60;;;1.35;;
40729;SDS011;26418;50.070;8.436;2022-09-16T06:45:02;5.97;;;1.50;;
40729;SDS011;26418;50.070;8.436;2022-09-16T06:47:29;7.88;;;1.73;;
40729;SDS011;26418;50.070;8.436;2022-09-16T06:49:57;4.13;;;1.65;;
40729;SDS011;26418;50.070;8.436;2022-09-16T06:52:25;6.95;;;1.50;;
40729;SDS011;26418;50.070;8.436;2022-09-16T06:54:52;5.40;;;1.70;;
40729;SDS011;26418;50.070;8.436;2022-09-16T06:57:18;8.93;;;1.70;;
40729;SDS011;26418;50.070;8.436;2022-09-16T06:59:46;5.20;;;1.33;;
40729;SDS011;26418;50.070;8.436;2022-09-16T07:02:12;4.65;;;1.45;;
40729;SDS011;26418;50.070;8.436;2022-09-16T07:04:37;3.25;;;1.65;;
40729;SDS011;26418;50.070;8.436;2022-09-16T07:07:03;7.32;;;1.60;;
40729;SDS011;26418;50.070;8.436;2022-09-16T07:09:28;8.57;;;1.35;;
40729;SDS011;26418;50.070;8.436;2022-09-16T07:11:55;10.45;;;1.88;;
40729;SDS011;26418;50.070;8.436;2022-09-16T07:14:21;7.07;;;1.88;;
40729;SDS011;26418;50.070;8.436;2022-09-16T07:16:46;5.15;;;1.73;;
40729;SDS011;26418;50.070;8.436;2022-09-16T07:19:12;4.65;;;1.65;;
40729;SDS011;26418;50.070;8.436;2022-09-16T07:21:37;6.28;;;1.40;;
40729;SDS011;26418;50.070;8.436;2022-09-16T07:24:02;6.45;;;1.40;;
40729;SDS011;26418;50.070;8.436;2022-09-16T07:26:29;7.22;;;1.40;;
40729;SDS011;26418;50.070;8.436;2022-09-16T07:28:57;7.47;;;1.67;;
40729;SDS011;26418;50.070;8.436;2022-09-16T07:31:25;2.85;;;0.90;;
40729;SDS011;26418;50.070;8.436;2022-09-16T07:33:53;5.28;;;1.52;;
40729;SDS011;26418;50.070;8.436;2022-09-16T07:36:22;3.95;;;1.20;;
40729;SDS011;26418;50.070;8.436;2022-09-16T07:38:49;3.10;;;1.30;;
40729;SDS011;26418;50.070;8.436;2022-09-16T07:41:19;5.43;;;1.38;;
40729;SDS011;26418;50.070;8.436;2022-09-16T07:43:47;3.55;;;0.98;;
40729;SDS011;26418;50.070;8.436;2022-09-16T07:46:14;5.43;;;1.48;;
40729;SDS011;26418;50.070;8.436;2022-09-16T07:48:40;3.95;;;1.38;;
40729;SDS011;26418;50.070;8.436;2022-09-16T07:51:07;5.13;;;1.08;;
40729;SDS011;26418;50.070;8.436;2022-09-16T07:53:40;5.00;;;1.45;;
40729;SDS011;26418;50.070;8.436;2022-09-16T07:56:13;5.45;;;1.23;;
40729;SDS011;26418;50.070;8.436;2022-09-16T07:58:40;3.72;;;1.10;;
40729;SDS011;26418;50.070;8.436;2022-09-16T08:01:06;9.48;;;1.65;;
40729;SDS011;26418;50.070;8.436;2022-09-16T08:03:33;10.73;;;1.67;;
40729;SDS011;26418;50.070;8.436;2022-09-16T08:06:01;2.88;;;0.80;;
40729;SDS011;26418;50.070;8.436;2022-09-16T08:08:28;4.90;;;1.08;;
40729;SDS011;26418;50.070;8.436;2022-09-16T08:10:54;5.85;;;1.05;;
40729;SDS011;26418;50.070;8.436;2022-09-16T08:13:19;4.82;;;1.00;;
40729;SDS011;26418;50.070;8.436;2022-09-16T08:15:45;4.88;;;1.30;;
40729;SDS011;26418;50.070;8.436;2022-09-16T08:18:10;13.20;;;0.98;;
40729;SDS011;26418;50.070;8.436;2022-09-16T08:20:36;2.80;;;0.75;;
40729;SDS011;26418;50.070;8.436;2022-09-16T08:23:01;4.40;;;1.00;;
40729;SDS011;26418;50.070;8.436;2022-09-16T08:25:26;5.10;;;0.90;;
40729;SDS011;26418;50.070;8.436;2022-09-16T08:27:52;7.32;;;0.82;;
40729;SDS011;26418;50.070;8.436;2022-09-16T08:30:17;7.20;;;1.00;;
40729;SDS011;26418;50.070;8.436;2022-09-16T08:32:42;2.45;;;0.60;;
40729;SDS011;26418;50.070;8.436;2022-09-16T08:35:08;5.03;;;0.82;;
40729;SDS011;26418;50.070;8.436;2022-09-16T08:37:33;2.00;;;0.77;;
40729;SDS011;26418;50.070;8.436;2022-09-16T08:39:58;3.75;;;1.02;;
40729;SDS011;26418;50.070;8.436;2022-09-16T08:42:28;5.05;;;0.95;;
40729;SDS011;26418;50.070;8.436;2022-09-16T08:45:11;1.85;;;0.82;;
40729;SDS011;26418;50.070;8.436;2022-09-16T08:47:59;3.67;;;0.93;;
40729;SDS011;26418;50.070;8.436;2022-09-16T08:50:49;7.68;;;1.10;;
40729;SDS011;26418;50.070;8.436;2022-09-16T08:53:18;6.18;;;1.23;;
40729;SDS011;26418;50.070;8.436;2022-09-16T08:55:51;3.67;;;0.90;;
40729;SDS011;26418;50.070;8.436;2022-09-16T08:58:29;4.70;;;1.40;;
40729;SDS011;26418;50.070;8.436;2022-09-16T09:01:01;8.73;;;0.93;;
40729;SDS011;26418;50.070;8.436;2022-09-16T09:03:36;2.95;;;0.80;;
40729;SDS011;26418;50.070;8.436;2022-09-16T09:06:12;1.85;;;0.75;;
40729;SDS011;26418;50.070;8.436;2022-09-16T09:08:59;4.35;;;1.30;;
40729;SDS011;26418;50.070;8.436;2022-09-16T09:11:41;3.78;;;0.80;;
40729;SDS011;26418;50.070;8.436;2022-09-16T09:17:02;5.03;;;0.98;;
40729;SDS011;26418;50.070;8.436;2022-09-16T09:19:42;2.03;;;0.68;;
40729;SDS011;26418;50.070;8.436;2022-09-16T09:25:31;1.45;;;0.60;;
40729;SDS011;26418;50.070;8.436;2022-09-16T09:30:56;4.28;;;0.73;;
40729;SDS011;26418;50.070;8.436;2022-09-16T09:33:51;2.58;;;0.70;;
40729;SDS011;26418;50.070;8.436;2022-09-16T09:42:02;3.13;;;0.82;;
40729;SDS011;26418;50.070;8.436;2022-09-16T09:47:35;3.58;;;0.85;;
40729;SDS011;26418;50.070;8.436;2022-09-16T09:50:08;7.32;;;1.20;;
40729;SDS011;26418;50.070;8.436;2022-09-16T09:55:36;4.25;;;1.05;;
40729;SDS011;26418;50.070;8.436;2022-09-16T09:58:18;3.05;;;0.70;;
40729;SDS011;26418;50.070;8.436;2022-09-16T10:00:45;4.18;;;2.75;;
40729;SDS011;26418;50.070;8.436;2022-09-16T10:03:15;5.22;;;1.00;;
40729;SDS011;26418;50.070;8.436;2022-09-16T10:05:42;3.92;;;0.90;;
40729;SDS011;26418;50.070;8.436;2022-09-16T10:08:12;3.22;;;0.90;;
40729;SDS011;26418;50.070;8.436;2022-09-16T10:10:54;6.38;;;0.90;;
40729;SDS011;26418;50.070;8.436;2022-09-16T10:13:25;0.90;;;0.60;;
40729;SDS011;26418;50.070;8.436;2022-09-16T10:15:53;2.78;;;0.60;;
40729;SDS011;26418;50.070;8.436;2022-09-16T10:18:30;3.13;;;0.77;;
40729;SDS011;26418;50.070;8.436;2022-09-16T10:21:35;4.32;;;0.93;;
40729;SDS011;26418;50.070;8.436;2022-09-16T10:23:55;1.70;;;0.80;;
40729;SDS011;26418;50.070;8.436;2022-09-16T10:26:23;3.40;;;0.93;;
40729;SDS011;26418;50.070;8.436;2022-09-16T10:31:38;4.05;;;1.10;;
40729;SDS011;26418;50.070;8.436;2022-09-16T10:34:12;3.25;;;0.52;;
40729;SDS011;26418;50.070;8.436;2022-09-16T10:36:42;1.40;;;0.60;;
40729;SDS011;26418;50.070;8.436;2022-09-16T10:39:16;4.07;;;0.85;;
40729;SDS011;26418;50.070;8.436;2022-09-16T10:41:49;4.28;;;0.90;;
40729;SDS011;26418;50.070;8.436;2022-09-16T10:44:25;3.25;;;1.02;;
40729;SDS011;26418;50.070;8.436;2022-09-16T10:47:05;5.05;;;0.90;;
40729;SDS011;26418;50.070;8.436;2022-09-16T10:49:46;3.78;;;0.70;;
40729;SDS011;26418;50.070;8.436;2022-09-16T10:54:44;4.10;;;0.85;;
40729;SDS011;26418;50.070;8.436;2022-09-16T10:57:20;7.82;;;1.00;;
40729;SDS011;26418;50.070;8.436;2022-09-16T11:06:04;1.75;;;0.60;;
40729;SDS011;26418;50.070;8.436;2022-09-16T11:08:47;3.67;;;0.60;;
40729;SDS011;26418;50.070;8.436;2022-09-16T11:11:38;4.78;;;0.80;;
40729;SDS011;26418;50.070;8.436;2022-09-16T11:17:44;3.78;;;0.73;;
40729;SDS011;26418;50.070;8.436;2022-09-16T11:20:38;1.88;;;0.57;;
40729;SDS011;26418;50.070;8.436;2022-09-16T11:26:12;3.53;;;0.60;;
40729;SDS011;26418;50.070;8.436;2022-09-16T11:34:00;1.45;;;0.80;;
40729;SDS011;26418;50.070;8.436;2022-09-16T11:44:55;1.10;;;0.70;;
40729;SDS011;26418;50.070;8.436;2022-09-16T11:47:26;1.55;;;0.63;;
40729;SDS011;26418;50.070;8.436;2022-09-16T11:50:30;1.60;;;0.40;;
40729;SDS011;26418;50.070;8.436;2022-09-16T11:53:13;3.85;;;0.70;;
40729;SDS011;26418;50.070;8.436;2022-09-16T11:55:57;2.25;;;0.40;;
40729;SDS011;26418;50.070;8.436;2022-09-16T11:58:49;1.83;;;0.75;;
40729;SDS011;26418;50.070;8.436;2022-09-16T12:01:18;2.80;;;0.80;;
40729;SDS011;26418;50.070;8.436;2022-09-16T12:03:54;1.27;;;0.20;;
40729;SDS011;26418;50.070;8.436;2022-09-16T12:06:25;3.80;;;0.50;;
40729;SDS011;26418;50.070;8.436;2022-09-16T12:08:57;2.97;;;0.32;;
40729;SDS011;26418;50.070;8.436;2022-09-16T12:11:28;2.28;;;0.57;;
40729;SDS011;26418;50.070;8.436;2022-09-16T12:14:16;0.95;;;0.43;;
40729;SDS011;26418;50.070;8.436;2022-09-16T12:16:47;1.58;;;0.47;;
40729;SDS011;26418;50.070;8.436;2022-09-16T12:19:23;2.80;;;0.55;;
40729;SDS011;26418;50.070;8.436;2022-09-16T12:21:55;2.15;;;0.30;;
40729;SDS011;26418;50.070;8.436;2022-09-16T12:24:45;1.65;;;0.65;;
40729;SDS011;26418;50.070;8.436;2022-09-16T12:27:25;1.08;;;0.30;;
40729;SDS011;26418;50.070;8.436;2022-09-16T12:30:36;1.35;;;0.40;;
40729;SDS011;26418;50.070;8.436;2022-09-16T12:35:20;0.77;;;0.30;;
40729;SDS011;26418;50.070;8.436;2022-09-16T12:37:52;2.92;;;0.55;;
40729;SDS011;26418;50.070;8.436;2022-09-16T12:40:19;1.13;;;0.50;;
40729;SDS011;26418;50.070;8.436;2022-09-16T12:43:03;2.85;;;0.55;;
40729;SDS011;26418;50.070;8.436;2022-09-16T12:45:43;3.25;;;0.85;;
40729;SDS011;26418;50.070;8.436;2022-09-16T12:54:20;1.65;;;0.32;;
40729;SDS011;26418;50.070;8.436;2022-09-16T12:57:25;3.05;;;1.10;;
40729;SDS011;26418;50.070;8.436;2022-09-16T13:00:20;4.45;;;0.93;;
40729;SDS011;26418;50.070;8.436;2022-09-16T13:02:53;1.73;;;0.60;;
40729;SDS011;26418;50.070;8.436;2022-09-16T13:07:56;1.88;;;0.32;;
40729;SDS011;26418;50.070;8.436;2022-09-16T13:10:44;2.50;;;0.47;;
40729;SDS011;26418;50.070;8.436;2022-09-16T13:13:17;3.03;;;0.75;;
40729;SDS011;26418;50.070;8.436;2022-09-16T13:15:55;1.58;;;0.45;;
40729;SDS011;26418;50.070;8.436;2022-09-16T13:18:23;2.10;;;0.50;;
40729;SDS011;26418;50.070;8.436;2022-09-16T13:21:04;2.13;;;0.50;;
40729;SDS011;26418;50.070;8.436;2022-09-16T13:23:39;3.25;;;0.50;;
40729;SDS011;26418;50.070;8.436;2022-09-16T13:26:08;2.72;;;0.45;;
40729;SDS011;26418;50.070;8.436;2022-09-16T13:28:38;0.32;;;0.30;;
40729;SDS011;26418;50.070;8.436;2022-09-16T13:33:36;0.63;;;0.30;;
40729;SDS011;26418;50.070;8.436;2022-09-16T13:36:11;1.55;;;0.60;;
40729;SDS011;26418;50.070;8.436;2022-09-16T13:38:41;0.65;;;0.30;;
40729;SDS011;26418;50.070;8.436;2022-09-16T13:41:13;2.65;;;0.60;;
40729;SDS011;26418;50.070;8.436;2022-09-16T13:43:52;4.13;;;0.60;;
40729;SDS011;26418;50.070;8.436;2022-09-16T13:46:26;1.20;;;0.30;;
40729;SDS011;26418;50.070;8.436;2022-09-16T13:51:38;2.30;;;0.70;;
40729;SDS011;26418;50.070;8.436;2022-09-16T13:54:14;0.90;;;0.57;;
40729;SDS011;26418;50.070;8.436;2022-09-16T14:02:20;1.08;;;0.30;;
40729;SDS011;26418;50.070;8.436;2022-09-16T14:13:20;0.57;;;0.40;;
40729;SDS011;26418;50.070;8.436;2022-09-16T14:15:53;2.03;;;0.52;;
40729;SDS011;26418;50.070;8.436;2022-09-16T14:18:23;1.48;;;0.50;;
40729;SDS011;26418;50.070;8.436;2022-09-16T14:21:37;1.10;;;0.50;;
40729;SDS011;26418;50.070;8.436;2022-09-16T14:23:44;0.82;;;0.45;;
40729;SDS011;26418;50.070;8.436;2022-09-16T14:26:14;0.93;;;0.32;;
40729;SDS011;26418;50.070;8.436;2022-09-16T14:28:41;2.22;;;0.60;;
40729;SDS011;26418;50.070;8.436;2022-09-16T14:31:14;4.25;;;0.60;;
40729;SDS011;26418;50.070;8.436;2022-09-16T14:33:48;1.10;;;0.57;;
40729;SDS011;26418;50.070;8.436;2022-09-16T14:36:24;0.43;;;0.38;;
40729;SDS011;26418;50.070;8.436;2022-09-16T14:41:23;0.98;;;0.45;;
40729;SDS011;26418;50.070;8.436;2022-09-16T14:43:51;0.75;;;0.50;;
40729;SDS011;26418;50.070;8.436;2022-09-16T14:46:18;3.92;;;0.30;;
40729;SDS011;26418;50.070;8.436;2022-09-16T14:48:44;1.60;;;0.60;;
40729;SDS011;26418;50.070;8.436;2022-09-16T14:51:17;1.95;;;0.55;;
40729;SDS011;26418;50.070;8.436;2022-09-16T14:53:56;4.10;;;0.63;;
40729;SDS011;26418;50.070;8.436;2022-09-16T14:56:23;2.40;;;0.90;;
40729;SDS011;26418;50.070;8.436;2022-09-16T14:58:49;2.70;;;0.70;;
40729;SDS011;26418;50.070;8.436;2022-09-16T15:01:23;1.17;;;0.68;;
40729;SDS011;26418;50.070;8.436;2022-09-16T15:03:55;0.75;;;0.30;;
40729;SDS011;26418;50.070;8.436;2022-09-16T15:06:39;1.13;;;0.35;;
40729;SDS011;26418;50.070;8.436;2022-09-16T15:09:15;0.68;;;0.30;;
40729;SDS011;26418;50.070;8.436;2022-09-16T15:11:49;0.98;;;0.50;;
40729;SDS011;26418;50.070;8.436;2022-09-16T15:16:46;2.13;;;0.50;;
40729;SDS011;26418;50.070;8.436;2022-09-16T15:19:19;4.45;;;0.73;;
40729;SDS011;26418;50.070;8.436;2022-09-16T15:21:48;0.98;;;0.30;;
40729;SDS011;26418;50.070;8.436;2022-09-16T15:24:17;2.03;;;0.65;;
40729;SDS011;26418;50.070;8.436;2022-09-16T15:26:45;2.88;;;0.57;;
40729;SDS011;26418;50.070;8.436;2022-09-16T15:29:25;0.95;;;0.20;;
40729;SDS011;26418;50.070;8.436;2022-09-16T15:31:54;1.23;;;0.20;;
40729;SDS011;26418;50.070;8.436;2022-09-16T15:34:31;0.35;;;0.10;;
40729;SDS011;26418;50.070;8.436;2022-09-16T15:36:57;0.50;;;0.20;;
40729;SDS011;26418;50.070;8.436;2022-09-16T15:39:27;0.68;;;0.20;;
40729;SDS011;26418;50.070;8.436;2022-09-16T15:44:42;0.88;;;0.47;;
40729;SDS011;26418;50.070;8.436;2022-09-16T15:50:06;3.25;;;0.30;;
40729;SDS011;26418;50.070;8.436;2022-09-16T15:52:53;1.20;;;0.50;;
40729;SDS011;26418;50.070;8.436;2022-09-16T15:55:54;0.85;;;0.32;;
40729;SDS011;26418;50.070;8.436;2022-09-16T15:58:20;1.95;;;0.30;;
40729;SDS011;26418;50.070;8.436;2022-09-16T16:01:03;1.65;;;0.20;;
40729;SDS011;26418;50.070;8.436;2022-09-16T16:06:08;1.02;;;0.45;;
40729;SDS011;26418;50.070;8.436;2022-09-16T16:08:48;2.75;;;0.50;;
40729;SDS011;26418;50.070;8.436;2022-09-16T16:11:16;1.08;;;0.30;;
40729;SDS011;26418;50.070;8.436;2022-09-16T16:13:46;1.27;;;0.28;;
40729;SDS011;26418;50.070;8.436;2022-09-16T16:16:14;4.82;;;0.35;;
40729;SDS011;26418;50.070;8.436;2022-09-16T16:18:40;2.60;;;0.50;;
40729;SDS011;26418;50.070;8.436;2022-09-16T16:21:08;1.33;;;0.40;;
40729;SDS011;26418;50.070;8.436;2022-09-16T16:23:35;0.75;;;0.30;;
40729;SDS011;26418;50.070;8.436;2022-09-16T16:26:07;0.70;;;0.20;;
40729;SDS011;26418;50.070;8.436;2022-09-16T16:28:34;1.05;;;0.40;;
40729;SDS011;26418;50.070;8.436;2022-09-16T16:31:10;1.65;;;0.20;;
40729;SDS011;26418;50.070;8.436;2022-09-16T16:33:43;2.58;;;0.30;;
40729;SDS011;26418;50.070;8.436;2022-09-16T16:36:14;6.45;;;0.50;;
40729;SDS011;26418;50.070;8.436;2022-09-16T16:38:41;0.85;;;0.40;;
40729;SDS011;26418;50.070;8.436;2022-09-16T16:41:07;1.88;;;0.70;;
40729;SDS011;26418;50.070;8.436;2022-09-16T16:43:33;5.20;;;0.90;;
40729;SDS011;26418;50.070;8.436;2022-09-16T16:45:58;3.78;;;0.65;;
40729;SDS011;26418;50.070;8.436;2022-09-16T16:48:25;2.15;;;0.75;;
40729;SDS011;26418;50.070;8.436;2022-09-16T16:50:59;3.00;;;0.63;;
40729;SDS011;26418;50.070;8.436;2022-09-16T16:53:28;1.92;;;1.00;;
40729;SDS011;26418;50.070;8.436;2022-09-16T16:55:54;2.05;;;0.68;;
40729;SDS011;26418;50.070;8.436;2022-09-16T16:58:28;3.10;;;0.88;;
40729;SDS011;26418;50.070;8.436;2022-09-16T17:00:54;1.80;;;0.77;;
40729;SDS011;26418;50.070;8.436;2022-09-16T17:03:20;3.10;;;0.50;;
40729;SDS011;26418;50.070;8.436;2022-09-16T17:05:46;2.55;;;0.80;;
40729;SDS011;26418;50.070;8.436;2022-09-16T17:08:11;3.13;;;0.70;;
40729;SDS011;26418;50.070;8.436;2022-09-16T17:10:37;1.52;;;0.40;;
40729;SDS011;26418;50.070;8.436;2022-09-16T17:13:02;0.68;;;0.43;;
40729;SDS011;26418;50.070;8.436;2022-09-16T17:15:28;1.90;;;0.50;;
40729;SDS011;26418;50.070;8.436;2022-09-16T17:17:53;1.25;;;0.47;;
40729;SDS011;26418;50.070;8.436;2022-09-16T17:20:18;2.03;;;0.70;;
40729;SDS011;26418;50.070;8.436;2022-09-16T17:22:43;1.75;;;0.30;;
40729;SDS011;26418;50.070;8.436;2022-09-16T17:25:09;1.52;;;0.43;;
40729;SDS011;26418;50.070;8.436;2022-09-16T17:27:34;1.10;;;0.40;;
40729;SDS011;26418;50.070;8.436;2022-09-16T17:29:59;0.85;;;0.55;;
40729;SDS011;26418;50.070;8.436;2022-09-16T17:32:26;0.80;;;0.60;;
40729;SDS011;26418;50.070;8.436;2022-09-16T17:34:51;0.90;;;0.55;;
40729;SDS011;26418;50.070;8.436;2022-09-16T17:37:16;0.85;;;0.30;;
40729;SDS011;26418;50.070;8.436;2022-09-16T17:39:43;1.23;;;0.70;;
40729;SDS011;26418;50.070;8.436;2022-09-16T17:42:09;3.42;;;0.43;;
40729;SDS011;26418;50.070;8.436;2022-09-16T17:44:34;0.90;;;0.50;;
40729;SDS011;26418;50.070;8.436;2022-09-16T17:46:59;1.52;;;0.70;;